Time,TemperatureF,DewpointF,PressureIn,WindDirection,WindDirectionDegrees,WindSpeedMPH,WindSpeedGustMPH,Humidity,HourlyPrecipIn,Conditions,Clouds,dailyrainin,SoftwareType,DateUTC
2013-03-20 00:04:00,38.2,20.0,29.77,West,278,0.0,6.0,48,0.00,,,0.59,weatherlink.com 1.10,2013-03-20 04:04:00,
2013-03-20 00:19:00,37.4,20.0,29.78,West,264,0.0,6.0,50,0.00,,,0.00,weatherlink.com 1.10,2013-03-20 04:19:00,
2013-03-20 00:34:00,36.9,19.0,29.78,West,270,1.0,8.0,49,0.00,,,0.00,weatherlink.com 1.10,2013-03-20 04:34:00,
2013-03-20 00:50:00,36.4,20.0,29.79,West,277,2.0,3.0,52,0.00,,,0.00,weatherlink.com 1.10,2013-03-20 04:50:00,
2013-03-20 01:05:00,35.9,21.0,29.79,West,271,5.0,9.0,54,0.00,,,0.00,weatherlink.com 1.10,2013-03-20 05:05:00,
2013-03-20 01:20:00,35.5,21.0,29.79,West,281,2.0,5.0,55,0.00,,,0.00,weatherlink.com 1.10,2013-03-20 05:20:00,
2013-03-20 01:35:00,35.1,21.0,29.80,West,271,2.0,4.0,56,0.00,,,0.00,weatherlink.com 1.10,2013-03-20 05:35:00,
2013-03-20 01:50:00,34.8,20.0,29.81,West,260,4.0,9.0,56,0.00,,,0.00,weatherlink.com 1.10,2013-03-20 05:50:00,
2013-03-20 02:05:00,34.7,20.0,29.81,SW,235,4.0,11.0,56,0.00,,,0.00,weatherlink.com 1.10,2013-03-20 06:05:00,
2013-03-20 02:20:00,34.3,20.0,29.81,NW,306,7.0,10.0,57,0.00,,,0.00,weatherlink.com 1.10,2013-03-20 06:20:00,
2013-03-20 02:35:00,34.2,21.0,29.82,West,261,3.0,9.0,58,0.00,,,0.00,weatherlink.com 1.10,2013-03-20 06:35:00,
2013-03-20 02:50:00,33.9,20.0,29.82,West,264,5.0,14.0,58,0.00,,,0.00,weatherlink.com 1.10,2013-03-20 06:50:00,
2013-03-20 03:05:00,33.5,20.0,29.83,SSW,207,2.0,7.0,59,0.00,,,0.00,weatherlink.com 1.10,2013-03-20 07:05:00,
2013-03-20 03:20:00,33.4,20.0,29.83,WNW,298,5.0,12.0,59,0.00,,,0.00,weatherlink.com 1.10,2013-03-20 07:20:00,
2013-03-20 03:35:00,33.4,21.0,29.83,West,278,9.0,13.0,60,0.00,,,0.00,weatherlink.com 1.10,2013-03-20 07:35:00,
2013-03-20 03:50:00,33.2,21.0,29.83,WSW,256,5.0,11.0,60,0.00,,,0.00,weatherlink.com 1.10,2013-03-20 07:50:00,
2013-03-20 04:05:00,33.0,21.0,29.83,West,280,1.0,10.0,61,0.00,,,0.00,weatherlink.com 1.10,2013-03-20 08:05:00,
2013-03-20 04:20:00,32.4,21.0,29.83,West,277,1.0,7.0,63,0.00,,,0.00,weatherlink.com 1.10,2013-03-20 08:20:00,
2013-03-20 04:35:00,31.9,21.0,29.83,West,271,0.0,7.0,65,0.00,,,0.00,weatherlink.com 1.10,2013-03-20 08:35:00,
2013-03-20 04:50:00,31.5,21.0,29.83,West,272,0.0,5.0,65,0.00,,,0.00,weatherlink.com 1.10,2013-03-20 08:50:00,
2013-03-20 05:05:00,31.3,21.0,29.83,WSW,244,0.0,4.0,66,0.00,,,0.00,weatherlink.com 1.10,2013-03-20 09:05:00,
2013-03-20 05:20:00,31.0,21.0,29.83,West,263,1.0,4.0,66,0.00,,,0.00,weatherlink.com 1.10,2013-03-20 09:20:00,
2013-03-20 05:35:00,31.0,21.0,29.83,WSW,246,3.0,5.0,66,0.00,,,0.00,weatherlink.com 1.10,2013-03-20 09:35:00,
2013-03-20 05:50:00,30.9,21.0,29.84,West,273,2.0,5.0,66,0.00,,,0.00,weatherlink.com 1.10,2013-03-20 09:50:00,
2013-03-20 06:05:00,30.8,21.0,29.84,WNW,284,2.0,5.0,66,0.00,,,0.00,weatherlink.com 1.10,2013-03-20 10:05:00,
2013-03-20 06:20:00,30.9,21.0,29.84,SW,219,3.0,10.0,66,0.00,,,0.00,weatherlink.com 1.10,2013-03-20 10:20:00,
2013-03-20 06:35:00,31.1,21.0,29.84,WSW,247,1.0,5.0,65,0.00,,,0.00,weatherlink.com 1.10,2013-03-20 10:35:00,
2013-03-20 06:50:00,31.3,20.0,29.84,West,262,2.0,5.0,64,0.00,,,0.00,weatherlink.com 1.10,2013-03-20 10:50:00,
2013-03-20 07:05:00,31.3,20.0,29.84,WSW,253,0.0,7.0,64,0.00,,,0.00,weatherlink.com 1.10,2013-03-20 11:05:00,
2013-03-20 07:20:00,31.2,20.0,29.84,SW,226,2.0,6.0,64,0.00,,,0.00,weatherlink.com 1.10,2013-03-20 11:20:00,
2013-03-20 07:35:00,31.6,20.0,29.84,NW,323,4.0,6.0,63,0.00,,,0.00,weatherlink.com 1.10,2013-03-20 11:35:00,
2013-03-20 07:50:00,32.5,21.0,29.85,West,275,4.0,6.0,62,0.00,,,0.00,weatherlink.com 1.10,2013-03-20 11:50:00,
2013-03-20 08:05:00,33.5,20.0,29.85,West,275,2.0,8.0,59,0.00,,,0.00,weatherlink.com 1.10,2013-03-20 12:05:00,
2013-03-20 08:20:00,34.2,20.0,29.84,WSW,252,3.0,8.0,57,0.00,,,0.00,weatherlink.com 1.10,2013-03-20 12:20:00,
2013-03-20 08:35:00,35.2,20.0,29.84,WSW,241,0.0,8.0,55,0.00,,,0.00,weatherlink.com 1.10,2013-03-20 12:35:00,
2013-03-20 08:50:00,36.0,20.0,29.84,NNW,332,4.0,14.0,53,0.00,,,0.00,weatherlink.com 1.10,2013-03-20 12:50:00,
2013-03-20 09:05:00,36.8,20.0,29.84,WSW,248,5.0,13.0,52,0.00,,,0.00,weatherlink.com 1.10,2013-03-20 13:05:00,
2013-03-20 09:21:00,37.4,20.0,29.83,WNW,290,7.0,17.0,50,0.00,,,0.00,weatherlink.com 1.10,2013-03-20 13:21:00,
2013-03-20 09:36:00,37.9,21.0,29.84,West,267,3.0,15.0,50,0.00,,,0.00,weatherlink.com 1.10,2013-03-20 13:36:00,
2013-03-20 09:51:00,38.6,20.0,29.84,West,261,3.0,13.0,48,0.00,,,0.00,weatherlink.com 1.10,2013-03-20 13:51:00,
2013-03-20 10:06:00,38.9,20.0,29.84,WSW,255,3.0,16.0,47,0.00,,,0.00,weatherlink.com 1.10,2013-03-20 14:06:00,
2013-03-20 10:21:00,39.9,20.0,29.84,WSW,246,5.0,17.0,46,0.00,,,0.00,weatherlink.com 1.10,2013-03-20 14:21:00,
2013-03-20 10:36:00,40.2,20.0,29.84,West,270,6.0,16.0,45,0.00,,,0.00,weatherlink.com 1.10,2013-03-20 14:36:00,
2013-03-20 10:51:00,40.4,21.0,29.84,WNW,282,4.0,14.0,46,0.00,,,0.00,weatherlink.com 1.10,2013-03-20 14:51:00,
2013-03-20 11:06:00,40.9,21.0,29.84,NW,317,5.0,16.0,46,0.00,,,0.00,weatherlink.com 1.10,2013-03-20 15:06:00,
2013-03-20 12:06:00,42.9,21.0,29.82,WSW,238,3.0,15.0,42,0.00,,,0.00,weatherlink.com 1.10,2013-03-20 16:06:00,
2013-03-20 12:21:00,42.3,21.0,29.82,West,277,8.0,19.0,43,0.00,,,0.00,weatherlink.com 1.10,2013-03-20 16:21:00,
2013-03-20 12:36:00,42.5,21.0,29.81,WSW,237,9.0,18.0,43,0.00,,,0.00,weatherlink.com 1.10,2013-03-20 16:36:00,
2013-03-20 12:51:00,43.7,23.0,29.81,WNW,291,5.0,11.0,44,0.00,,,0.00,weatherlink.com 1.10,2013-03-20 16:51:00,
2013-03-20 13:21:00,43.9,21.0,29.80,WSW,256,4.0,12.0,40,0.00,,,0.00,weatherlink.com 1.10,2013-03-20 17:21:00,
2013-03-20 13:36:00,44.0,22.0,29.79,WSW,254,10.0,14.0,41,0.00,,,0.00,weatherlink.com 1.10,2013-03-20 17:36:00,
2013-03-20 13:51:00,44.2,21.0,29.78,WSW,245,3.0,14.0,40,0.00,,,0.00,weatherlink.com 1.10,2013-03-20 17:51:00,
2013-03-20 14:05:00,45.0,21.0,29.77,WSW,244,4.0,14.0,39,0.00,,,0.00,weatherlink.com 1.10,2013-03-20 18:05:00,
2013-03-20 14:36:00,45.4,21.0,29.76,WSW,243,3.0,17.0,38,0.00,,,0.00,weatherlink.com 1.10,2013-03-20 18:36:00,
2013-03-20 14:51:00,46.3,21.0,29.75,West,267,3.0,16.0,36,0.00,,,0.00,weatherlink.com 1.10,2013-03-20 18:51:00,
2013-03-20 15:21:00,44.7,21.0,29.75,SW,230,4.0,18.0,39,0.00,,,0.00,weatherlink.com 1.10,2013-03-20 19:21:00,
2013-03-20 15:36:00,45.1,21.0,29.75,SW,227,5.0,20.0,39,0.00,,,0.00,weatherlink.com 1.10,2013-03-20 19:36:00,
2013-03-20 16:21:00,45.7,20.0,29.74,WSW,254,3.0,20.0,36,0.00,,,0.00,weatherlink.com 1.10,2013-03-20 20:21:00,
2013-03-20 16:36:00,45.2,20.0,29.74,WNW,296,2.0,14.0,36,0.00,,,0.00,weatherlink.com 1.10,2013-03-20 20:36:00,
2013-03-20 16:51:00,45.3,19.0,29.74,SW,236,2.0,13.0,35,0.00,,,0.00,weatherlink.com 1.10,2013-03-20 20:51:00,
2013-03-20 17:06:00,46.0,18.0,29.73,WNW,295,10.0,21.0,33,0.00,,,0.00,weatherlink.com 1.10,2013-03-20 21:06:00,
2013-03-20 17:21:00,46.3,18.0,29.73,West,267,2.0,14.0,33,0.00,,,0.00,weatherlink.com 1.10,2013-03-20 21:21:00,
2013-03-20 17:35:00,45.7,19.0,29.73,SW,235,2.0,13.0,34,0.00,,,0.00,weatherlink.com 1.10,2013-03-20 21:35:00,
2013-03-20 17:51:00,45.2,19.0,29.74,West,277,2.0,12.0,35,0.00,,,0.00,weatherlink.com 1.10,2013-03-20 21:51:00,
2013-03-20 18:06:00,44.9,19.0,29.74,WSW,253,4.0,7.0,36,0.00,,,0.00,weatherlink.com 1.10,2013-03-20 22:06:00,
2013-03-20 18:36:00,44.5,19.0,29.74,WSW,247,3.0,7.0,36,0.00,,,0.00,weatherlink.com 1.10,2013-03-20 22:36:00,
2013-03-20 18:51:00,43.9,19.0,29.74,WNW,302,1.0,7.0,37,0.00,,,0.00,weatherlink.com 1.10,2013-03-20 22:51:00,
2013-03-20 19:05:00,43.4,20.0,29.74,WNW,282,0.0,8.0,39,0.00,,,0.00,weatherlink.com 1.10,2013-03-20 23:05:00,
2013-03-20 19:37:00,42.2,19.0,29.74,NNW,340,0.0,8.0,40,0.00,,,0.00,weatherlink.com 1.10,2013-03-20 23:37:00,
2013-03-20 20:06:00,40.9,20.0,29.75,West,273,0.0,2.0,43,0.00,,,0.00,weatherlink.com 1.10,2013-03-21 00:06:00,
2013-03-20 20:22:00,40.0,21.0,29.75,West,273,0.0,1.0,46,0.00,,,0.00,weatherlink.com 1.10,2013-03-21 00:22:00,
2013-03-20 20:36:00,39.7,20.0,29.75,WNW,284,1.0,3.0,45,0.00,,,0.00,weatherlink.com 1.10,2013-03-21 00:36:00,
2013-03-20 20:51:00,40.1,20.0,29.75,WNW,291,0.0,2.0,45,0.00,,,0.00,weatherlink.com 1.10,2013-03-21 00:51:00,
2013-03-20 21:06:00,39.8,21.0,29.76,WNW,291,0.0,2.0,47,0.00,,,0.00,weatherlink.com 1.10,2013-03-21 01:06:00,
2013-03-20 21:21:00,39.4,22.0,29.76,WNW,291,0.0,1.0,49,0.00,,,0.00,weatherlink.com 1.10,2013-03-21 01:21:00,
2013-03-20 21:36:00,38.8,22.0,29.75,WNW,291,0.0,0.0,51,0.00,,,0.00,weatherlink.com 1.10,2013-03-21 01:36:00,
2013-03-20 21:51:00,38.2,21.0,29.76,WNW,291,0.0,1.0,51,0.00,,,0.00,weatherlink.com 1.10,2013-03-21 01:51:00,
2013-03-20 22:21:00,37.7,23.0,29.77,WNW,291,0.0,0.0,56,0.00,,,0.00,weatherlink.com 1.10,2013-03-21 02:21:00,
2013-03-20 22:36:00,37.5,23.0,29.77,WNW,291,0.0,0.0,57,0.00,,,0.00,weatherlink.com 1.10,2013-03-21 02:36:00,
2013-03-20 22:52:00,37.9,23.0,29.77,WNW,291,0.0,1.0,56,0.00,,,0.00,weatherlink.com 1.10,2013-03-21 02:52:00,
2013-03-20 23:06:00,37.9,24.0,29.77,WNW,291,0.0,0.0,57,0.00,,,0.00,weatherlink.com 1.10,2013-03-21 03:06:00,
2013-03-20 23:21:00,37.7,23.0,29.77,West,269,7.0,8.0,55,0.00,,,0.00,weatherlink.com 1.10,2013-03-21 03:21:00,
2013-03-20 23:37:00,38.6,23.0,29.78,NNW,338,0.0,3.0,54,0.00,,,0.00,weatherlink.com 1.10,2013-03-21 03:37:00,
2013-03-20 23:52:00,38.8,23.0,29.79,WNW,298,1.0,7.0,54,0.00,,,0.00,weatherlink.com 1.10,2013-03-21 03:52:00,